Flight Track Log - Related Links

Times and Time Zones

All times are in EDT time to prevent confusion due to time zone crossing. See the ASQ4633 flight status page for this flight to view local times or setup timezone preferences in your user account.

Time Position Orientation Groundspeed Altitude Reporting Facility
EDT Latitude Longitude Course Direction KTS MPH feet Rate Location/Type
Fri 02:01:01 PM 40.7000 -74.1500 40° Northeast 166 191 1,100  Level New York TRACON
Fri 02:02:01 PM 40.7500 -74.1167 27° Northeast 223 257 2,900 2,150 Climbing New York TRACON
Fri 02:03:01 PM 40.8167 -74.0667 30° Northeast 251 289 5,400 2,100 Climbing New York TRACON
Fri 02:04:01 PM 40.8333 -73.9833 75° East 260 299 7,100 1,705 Climbing New York TRACON
Fri 02:05:00 PM 41.0312 -73.7817 40° Northeast  Level FlightAware Approximate
Fri 02:06:00 PM 41.1026 -73.7013 40° Northeast  Level FlightAware Approximate
Fri 02:06:04 PM 40.8794 -73.7742 74° East 280 322 10,600  Level Boston Center
Fri 02:07:04 PM 40.9594 -73.7125 30° Northeast 294 338 12,000 1,400 Climbing Boston Center
Fri 02:08:04 PM 41.0372 -73.6536 30° Northeast 319 367 13,400 1,550 Climbing Boston Center
Fri 02:09:04 PM 41.1317 -73.5839 29° Northeast 351 404 15,100 1,650 Climbing Boston Center
Fri 02:10:04 PM 41.2200 -73.5136 31° Northeast 356 410 16,700 1,400 Climbing Boston Center
Fri 02:11:04 PM 41.3100 -73.4458 29° Northeast 356 410 17,900 1,100 Climbing Boston Center
Fri 02:12:04 PM 41.4025 -73.3756 30° Northeast 368 423 18,900 1,050 Climbing Boston Center
Fri 02:13:04 PM 41.4967 -73.2992 31° Northeast 382 440 20,000 1,150 Climbing Boston Center
Fri 02:14:04 PM 41.5886 -73.2894 North 366 421 21,200 1,350 Climbing Boston Center
Fri 02:15:04 PM 41.6928 -73.2908 359° North 366 421 22,700 1,550 Climbing Boston Center
Fri 02:16:04 PM 41.7969 -73.2978 357° North 366 421 24,300 1,150 Climbing Boston Center
Fri 02:17:04 PM 41.8989 -73.3019 358° North 366 421 25,000 350 Climbing Boston Center
Fri 02:18:04 PM 42.0114 -73.3061 358° North 373 429 25,000  Level Boston Center
Fri 02:19:04 PM 42.1283 -73.3106 358° North 397 457 25,000  Level Boston Center
Fri 02:20:04 PM 42.2575 -73.3181 358° North 410 472 25,000  Level Boston Center
Fri 02:21:04 PM 42.3783 -73.3169 360° North 416 479 25,000  Level Boston Center
Fri 02:22:04 PM 42.4969 -73.3214 358° North 426 490 25,000  Level Boston Center
Fri 02:23:04 PM 42.6117 -73.3317 356° North 421 484 25,000  Level Boston Center
Fri 02:24:04 PM 42.7303 -73.3361 358° North 421 484 25,000  Level Boston Center
Fri 02:25:04 PM 42.8492 -73.3433 357° North 421 484 25,000  Level Boston Center
Fri 02:26:04 PM 42.9658 -73.3453 359° North 421 484 25,000 -200 Level Boston Center
Fri 02:27:04 PM 43.0867 -73.3383 North 421 484 24,600 -500 Descending Boston Center
Fri 02:28:04 PM 43.2056 -73.3231 North 421 484 24,000 -300 Descending Boston Center
Fri 02:29:04 PM 43.3203 -73.3106 North 421 484 24,000  Level Boston Center
Fri 02:30:04 PM 43.3892 -73.3058 North 421 484 24,000 -850 Level Boston Center
Fri 02:31:04 PM 43.5372 -73.2850 North 411 473 22,300 -2,350 Descending Boston Center
Fri 02:32:04 PM 43.6478 -73.2722 North 404 465 19,300 -2,800 Descending Boston Center
Fri 02:33:04 PM 43.7561 -73.2592 North 395 455 16,700 -2,800 Descending Boston Center
Fri 02:34:04 PM 43.8583 -73.2464 North 375 432 13,700 -2,500 Descending Boston Center
Fri 02:35:04 PM 43.9564 -73.2361 North 357 411 11,700 -1,500 Descending Boston Center
Fri 02:36:04 PM 44.0378 -73.2256 North 315 362 10,700 -900 Descending Boston Center
Fri 02:37:04 PM 44.1150 -73.2181 North 285 328 9,900 -1,033 Descending Boston Center
Fri 02:39:04 PM 44.2506 -73.2022 North 242 278 7,600 -1,267 Descending Boston Center
Fri 02:40:04 PM 44.3008 -73.1333 44° Northeast 224 258 6,100 -1,650 Descending Boston Center
Fri 02:41:04 PM 44.3511 -73.0817 36° Northeast 219 252 4,300 -1,800 Descending Boston Center

Login

Don't have an account? Register now (free) for customized features, flight alerts, and more!